sensor_id;sensor_type;location;lat;lon;timestamp;P1;durP1;ratioP1;P2;durP2;ratioP2
53925;SDS011;39836;52.754;6.866;2024-03-08T00:00:07;45.30;;;32.05;;
53925;SDS011;39836;52.754;6.866;2024-03-08T00:02:40;44.50;;;32.03;;
53925;SDS011;39836;52.754;6.866;2024-03-08T00:05:12;41.30;;;30.20;;
53925;SDS011;39836;52.754;6.866;2024-03-08T00:07:38;44.38;;;32.70;;
53925;SDS011;39836;52.754;6.866;2024-03-08T00:10:08;47.05;;;31.67;;
53925;SDS011;39836;52.754;6.866;2024-03-08T00:12:38;47.50;;;33.45;;
53925;SDS011;39836;52.754;6.866;2024-03-08T00:15:07;47.90;;;33.92;;
53925;SDS011;39836;52.754;6.866;2024-03-08T00:17:34;48.53;;;31.73;;
53925;SDS011;39836;52.754;6.866;2024-03-08T00:20:00;42.97;;;31.20;;
53925;SDS011;39836;52.754;6.866;2024-03-08T00:22:25;46.30;;;33.65;;
53925;SDS011;39836;52.754;6.866;2024-03-08T00:24:51;48.88;;;31.15;;
53925;SDS011;39836;52.754;6.866;2024-03-08T00:27:17;43.92;;;32.40;;
53925;SDS011;39836;52.754;6.866;2024-03-08T00:29:46;45.75;;;31.80;;
53925;SDS011;39836;52.754;6.866;2024-03-08T00:32:12;48.75;;;32.58;;
53925;SDS011;39836;52.754;6.866;2024-03-08T00:34:38;41.40;;;31.15;;
53925;SDS011;39836;52.754;6.866;2024-03-08T00:37:03;45.58;;;31.70;;
53925;SDS011;39836;52.754;6.866;2024-03-08T00:39:29;49.90;;;33.67;;
53925;SDS011;39836;52.754;6.866;2024-03-08T00:41:55;41.72;;;31.40;;
53925;SDS011;39836;52.754;6.866;2024-03-08T00:44:21;45.55;;;32.95;;
53925;SDS011;39836;52.754;6.866;2024-03-08T00:46:47;45.97;;;32.25;;
53925;SDS011;39836;52.754;6.866;2024-03-08T00:49:12;50.38;;;33.08;;
53925;SDS011;39836;52.754;6.866;2024-03-08T00:51:38;45.60;;;33.15;;
53925;SDS011;39836;52.754;6.866;2024-03-08T00:54:04;44.97;;;32.20;;
53925;SDS011;39836;52.754;6.866;2024-03-08T00:56:29;52.13;;;33.90;;
53925;SDS011;39836;52.754;6.866;2024-03-08T00:58:55;44.40;;;32.55;;
53925;SDS011;39836;52.754;6.866;2024-03-08T01:01:21;47.47;;;32.70;;
53925;SDS011;39836;52.754;6.866;2024-03-08T01:03:47;48.67;;;34.95;;
53925;SDS011;39836;52.754;6.866;2024-03-08T01:06:13;49.65;;;33.92;;
53925;SDS011;39836;52.754;6.866;2024-03-08T01:08:39;45.05;;;34.35;;
53925;SDS011;39836;52.754;6.866;2024-03-08T01:11:07;48.05;;;35.30;;
53925;SDS011;39836;52.754;6.866;2024-03-08T01:13:34;48.38;;;32.95;;
53925;SDS011;39836;52.754;6.866;2024-03-08T01:16:00;44.60;;;32.33;;
53925;SDS011;39836;52.754;6.866;2024-03-08T01:18:25;47.30;;;33.40;;
53925;SDS011;39836;52.754;6.866;2024-03-08T01:20:51;50.35;;;34.40;;
53925;SDS011;39836;52.754;6.866;2024-03-08T01:23:17;49.17;;;35.00;;
53925;SDS011;39836;52.754;6.866;2024-03-08T01:25:43;51.60;;;34.45;;
53925;SDS011;39836;52.754;6.866;2024-03-08T01:28:09;46.28;;;33.70;;
53925;SDS011;39836;52.754;6.866;2024-03-08T01:30:35;50.83;;;34.67;;
53925;SDS011;39836;52.754;6.866;2024-03-08T01:33:02;48.85;;;34.15;;
53925;SDS011;39836;52.754;6.866;2024-03-08T01:35:28;46.45;;;34.50;;
53925;SDS011;39836;52.754;6.866;2024-03-08T01:37:54;46.58;;;33.60;;
53925;SDS011;39836;52.754;6.866;2024-03-08T01:40:20;49.72;;;34.85;;
53925;SDS011;39836;52.754;6.866;2024-03-08T01:42:45;46.92;;;33.78;;
53925;SDS011;39836;52.754;6.866;2024-03-08T01:45:13;50.00;;;35.05;;
53925;SDS011;39836;52.754;6.866;2024-03-08T01:47:39;45.47;;;33.50;;
53925;SDS011;39836;52.754;6.866;2024-03-08T01:50:05;48.13;;;34.67;;
53925;SDS011;39836;52.754;6.866;2024-03-08T01:52:31;23.75;;;14.02;;
53925;SDS011;39836;52.754;6.866;2024-03-08T01:54:59;16.50;;;11.32;;
53925;SDS011;39836;52.754;6.866;2024-03-08T01:57:29;48.25;;;33.88;;
53925;SDS011;39836;52.754;6.866;2024-03-08T01:59:58;46.75;;;33.80;;
53925;SDS011;39836;52.754;6.866;2024-03-08T02:02:28;44.90;;;33.92;;
53925;SDS011;39836;52.754;6.866;2024-03-08T02:04:57;47.75;;;34.38;;
53925;SDS011;39836;52.754;6.866;2024-03-08T02:07:23;47.70;;;33.42;;
53925;SDS011;39836;52.754;6.866;2024-03-08T02:09:48;47.35;;;34.05;;
53925;SDS011;39836;52.754;6.866;2024-03-08T02:12:14;47.58;;;34.17;;
53925;SDS011;39836;52.754;6.866;2024-03-08T02:14:40;47.20;;;33.70;;
53925;SDS011;39836;52.754;6.866;2024-03-08T02:17:06;49.13;;;34.53;;
53925;SDS011;39836;52.754;6.866;2024-03-08T02:19:32;46.80;;;32.50;;
53925;SDS011;39836;52.754;6.866;2024-03-08T02:21:58;47.88;;;32.78;;
53925;SDS011;39836;52.754;6.866;2024-03-08T02:24:24;48.17;;;34.97;;
53925;SDS011;39836;52.754;6.866;2024-03-08T02:26:50;48.65;;;33.30;;
53925;SDS011;39836;52.754;6.866;2024-03-08T02:29:16;45.92;;;33.70;;
53925;SDS011;39836;52.754;6.866;2024-03-08T02:31:42;50.75;;;32.97;;
53925;SDS011;39836;52.754;6.866;2024-03-08T02:34:08;12.52;;;9.63;;
53925;SDS011;39836;52.754;6.866;2024-03-08T02:36:34;24.00;;;12.85;;
53925;SDS011;39836;52.754;6.866;2024-03-08T02:39:03;19.75;;;10.10;;
53925;SDS011;39836;52.754;6.866;2024-03-08T02:41:30;25.20;;;13.23;;
53925;SDS011;39836;52.754;6.866;2024-03-08T02:43:56;21.52;;;10.63;;
53925;SDS011;39836;52.754;6.866;2024-03-08T02:46:22;24.83;;;11.90;;
53925;SDS011;39836;52.754;6.866;2024-03-08T02:48:47;15.35;;;8.38;;
53925;SDS011;39836;52.754;6.866;2024-03-08T02:51:13;29.13;;;11.93;;
53925;SDS011;39836;52.754;6.866;2024-03-08T02:53:41;18.02;;;11.32;;
53925;SDS011;39836;52.754;6.866;2024-03-08T02:56:08;24.73;;;12.07;;
53925;SDS011;39836;52.754;6.866;2024-03-08T02:58:38;21.75;;;11.77;;
53925;SDS011;39836;52.754;6.866;2024-03-08T03:01:03;14.57;;;9.57;;
53925;SDS011;39836;52.754;6.866;2024-03-08T03:03:29;18.27;;;10.52;;
53925;SDS011;39836;52.754;6.866;2024-03-08T03:05:55;16.27;;;9.75;;
53925;SDS011;39836;52.754;6.866;2024-03-08T03:08:21;24.73;;;13.48;;
53925;SDS011;39836;52.754;6.866;2024-03-08T03:10:46;21.52;;;11.32;;
53925;SDS011;39836;52.754;6.866;2024-03-08T03:13:12;18.33;;;9.15;;
53925;SDS011;39836;52.754;6.866;2024-03-08T03:15:39;15.90;;;11.23;;
53925;SDS011;39836;52.754;6.866;2024-03-08T03:18:06;17.92;;;9.95;;
53925;SDS011;39836;52.754;6.866;2024-03-08T03:20:33;19.52;;;9.48;;
53925;SDS011;39836;52.754;6.866;2024-03-08T03:23:02;15.73;;;9.98;;
53925;SDS011;39836;52.754;6.866;2024-03-08T03:25:28;25.40;;;13.63;;
53925;SDS011;39836;52.754;6.866;2024-03-08T03:27:58;14.50;;;10.90;;
53925;SDS011;39836;52.754;6.866;2024-03-08T03:30:25;23.60;;;13.20;;
53925;SDS011;39836;52.754;6.866;2024-03-08T03:32:52;20.20;;;8.95;;
53925;SDS011;39836;52.754;6.866;2024-03-08T03:35:20;13.10;;;9.57;;
53925;SDS011;39836;52.754;6.866;2024-03-08T03:37:46;17.02;;;10.93;;
53925;SDS011;39836;52.754;6.866;2024-03-08T03:40:34;13.65;;;8.93;;
53925;SDS011;39836;52.754;6.866;2024-03-08T03:43:04;22.02;;;6.72;;
53925;SDS011;39836;52.754;6.866;2024-03-08T03:45:30;19.40;;;9.60;;
53925;SDS011;39836;52.754;6.866;2024-03-08T03:48:01;18.77;;;11.50;;
53925;SDS011;39836;52.754;6.866;2024-03-08T03:50:31;14.30;;;8.38;;
53925;SDS011;39836;52.754;6.866;2024-03-08T03:52:59;19.55;;;11.95;;
53925;SDS011;39836;52.754;6.866;2024-03-08T03:55:25;12.73;;;8.57;;
53925;SDS011;39836;52.754;6.866;2024-03-08T03:57:52;15.48;;;11.15;;
53925;SDS011;39836;52.754;6.866;2024-03-08T04:00:18;19.58;;;9.73;;
53925;SDS011;39836;52.754;6.866;2024-03-08T04:02:44;22.30;;;12.82;;
53925;SDS011;39836;52.754;6.866;2024-03-08T04:05:10;26.15;;;10.27;;
53925;SDS011;39836;52.754;6.866;2024-03-08T04:07:37;15.05;;;9.05;;
53925;SDS011;39836;52.754;6.866;2024-03-08T04:10:03;18.33;;;11.10;;
53925;SDS011;39836;52.754;6.866;2024-03-08T04:12:31;19.42;;;12.50;;
53925;SDS011;39836;52.754;6.866;2024-03-08T04:15:00;18.98;;;13.43;;
53925;SDS011;39836;52.754;6.866;2024-03-08T04:17:26;15.77;;;11.93;;
53925;SDS011;39836;52.754;6.866;2024-03-08T04:19:52;14.63;;;9.18;;
53925;SDS011;39836;52.754;6.866;2024-03-08T04:22:18;10.60;;;8.52;;
53925;SDS011;39836;52.754;6.866;2024-03-08T04:24:44;11.15;;;8.90;;
53925;SDS011;39836;52.754;6.866;2024-03-08T04:27:11;13.88;;;9.27;;
53925;SDS011;39836;52.754;6.866;2024-03-08T04:29:37;15.80;;;9.68;;
53925;SDS011;39836;52.754;6.866;2024-03-08T04:32:03;16.77;;;9.40;;
53925;SDS011;39836;52.754;6.866;2024-03-08T04:34:31;13.35;;;9.85;;
53925;SDS011;39836;52.754;6.866;2024-03-08T04:36:58;19.98;;;12.02;;
53925;SDS011;39836;52.754;6.866;2024-03-08T04:39:25;20.77;;;11.40;;
53925;SDS011;39836;52.754;6.866;2024-03-08T04:41:53;12.23;;;8.57;;
53925;SDS011;39836;52.754;6.866;2024-03-08T04:44:21;29.60;;;14.82;;
53925;SDS011;39836;52.754;6.866;2024-03-08T04:46:49;14.60;;;9.95;;
53925;SDS011;39836;52.754;6.866;2024-03-08T04:49:15;22.13;;;13.10;;
53925;SDS011;39836;52.754;6.866;2024-03-08T04:51:41;19.73;;;12.15;;
53925;SDS011;39836;52.754;6.866;2024-03-08T04:54:06;18.85;;;10.57;;
53925;SDS011;39836;52.754;6.866;2024-03-08T04:56:32;24.67;;;11.02;;
53925;SDS011;39836;52.754;6.866;2024-03-08T04:58:58;31.35;;;12.85;;
53925;SDS011;39836;52.754;6.866;2024-03-08T05:01:24;17.85;;;9.73;;
53925;SDS011;39836;52.754;6.866;2024-03-08T05:03:50;17.58;;;12.98;;
53925;SDS011;39836;52.754;6.866;2024-03-08T05:06:16;20.20;;;11.57;;
53925;SDS011;39836;52.754;6.866;2024-03-08T05:08:42;13.65;;;8.85;;
53925;SDS011;39836;52.754;6.866;2024-03-08T05:11:07;11.30;;;8.85;;
53925;SDS011;39836;52.754;6.866;2024-03-08T05:13:34;21.20;;;12.15;;
53925;SDS011;39836;52.754;6.866;2024-03-08T05:16:00;21.58;;;12.25;;
53925;SDS011;39836;52.754;6.866;2024-03-08T05:18:26;22.20;;;13.15;;
53925;SDS011;39836;52.754;6.866;2024-03-08T05:20:57;12.52;;;8.65;;
53925;SDS011;39836;52.754;6.866;2024-03-08T05:23:22;17.10;;;10.93;;
53925;SDS011;39836;52.754;6.866;2024-03-08T05:25:48;17.30;;;11.93;;
53925;SDS011;39836;52.754;6.866;2024-03-08T05:28:14;13.18;;;8.45;;
53925;SDS011;39836;52.754;6.866;2024-03-08T05:30:40;20.60;;;11.55;;
53925;SDS011;39836;52.754;6.866;2024-03-08T05:33:06;16.60;;;10.38;;
53925;SDS011;39836;52.754;6.866;2024-03-08T05:35:35;16.88;;;10.60;;
53925;SDS011;39836;52.754;6.866;2024-03-08T05:38:01;12.38;;;8.40;;
53925;SDS011;39836;52.754;6.866;2024-03-08T05:40:27;22.60;;;12.25;;
53925;SDS011;39836;52.754;6.866;2024-03-08T05:42:56;18.02;;;10.48;;
53925;SDS011;39836;52.754;6.866;2024-03-08T05:45:25;10.45;;;8.32;;
53925;SDS011;39836;52.754;6.866;2024-03-08T05:47:51;8.55;;;7.43;;
53925;SDS011;39836;52.754;6.866;2024-03-08T05:50:17;16.55;;;10.95;;
53925;SDS011;39836;52.754;6.866;2024-03-08T05:52:44;9.45;;;7.45;;
53925;SDS011;39836;52.754;6.866;2024-03-08T05:55:10;21.73;;;10.90;;
53925;SDS011;39836;52.754;6.866;2024-03-08T05:57:39;16.85;;;9.63;;
53925;SDS011;39836;52.754;6.866;2024-03-08T06:00:08;12.07;;;8.65;;
53925;SDS011;39836;52.754;6.866;2024-03-08T06:02:37;14.90;;;9.73;;
53925;SDS011;39836;52.754;6.866;2024-03-08T06:05:07;11.73;;;8.23;;
53925;SDS011;39836;52.754;6.866;2024-03-08T06:07:36;17.10;;;11.27;;
53925;SDS011;39836;52.754;6.866;2024-03-08T06:10:06;13.77;;;9.95;;
53925;SDS011;39836;52.754;6.866;2024-03-08T06:12:35;14.13;;;9.40;;
53925;SDS011;39836;52.754;6.866;2024-03-08T06:15:07;14.05;;;7.95;;
53925;SDS011;39836;52.754;6.866;2024-03-08T06:17:34;13.38;;;10.25;;
53925;SDS011;39836;52.754;6.866;2024-03-08T06:20:03;19.08;;;8.50;;
53925;SDS011;39836;52.754;6.866;2024-03-08T06:22:36;14.90;;;9.82;;
53925;SDS011;39836;52.754;6.866;2024-03-08T06:25:06;9.98;;;7.28;;
53925;SDS011;39836;52.754;6.866;2024-03-08T06:27:42;11.60;;;7.97;;
53925;SDS011;39836;52.754;6.866;2024-03-08T06:30:08;14.98;;;12.80;;
53925;SDS011;39836;52.754;6.866;2024-03-08T06:32:35;8.95;;;6.82;;
53925;SDS011;39836;52.754;6.866;2024-03-08T06:35:02;26.45;;;8.73;;
53925;SDS011;39836;52.754;6.866;2024-03-08T06:37:31;10.02;;;6.18;;
53925;SDS011;39836;52.754;6.866;2024-03-08T06:39:57;17.58;;;8.50;;
53925;SDS011;39836;52.754;6.866;2024-03-08T06:42:23;8.40;;;6.82;;
53925;SDS011;39836;52.754;6.866;2024-03-08T06:44:49;12.25;;;6.47;;
53925;SDS011;39836;52.754;6.866;2024-03-08T06:47:15;10.45;;;6.88;;
53925;SDS011;39836;52.754;6.866;2024-03-08T06:49:42;9.45;;;4.68;;
53925;SDS011;39836;52.754;6.866;2024-03-08T06:52:09;10.60;;;8.77;;
53925;SDS011;39836;52.754;6.866;2024-03-08T06:54:35;7.10;;;6.43;;
53925;SDS011;39836;52.754;6.866;2024-03-08T06:57:04;10.13;;;6.32;;
53925;SDS011;39836;52.754;6.866;2024-03-08T06:59:33;10.50;;;7.20;;
53925;SDS011;39836;52.754;6.866;2024-03-08T07:02:01;9.00;;;5.93;;
53925;SDS011;39836;52.754;6.866;2024-03-08T07:04:27;6.00;;;5.45;;
53925;SDS011;39836;52.754;6.866;2024-03-08T07:06:58;11.82;;;6.10;;
53925;SDS011;39836;52.754;6.866;2024-03-08T07:09:23;8.70;;;6.57;;
53925;SDS011;39836;52.754;6.866;2024-03-08T07:11:50;5.38;;;4.88;;
53925;SDS011;39836;52.754;6.866;2024-03-08T07:14:22;8.10;;;4.88;;
53925;SDS011;39836;52.754;6.866;2024-03-08T07:16:49;6.78;;;6.07;;
53925;SDS011;39836;52.754;6.866;2024-03-08T07:19:15;14.02;;;7.95;;
53925;SDS011;39836;52.754;6.866;2024-03-08T07:21:42;9.70;;;6.05;;
53925;SDS011;39836;52.754;6.866;2024-03-08T07:24:12;14.02;;;9.88;;
53925;SDS011;39836;52.754;6.866;2024-03-08T07:26:57;12.88;;;8.20;;
53925;SDS011;39836;52.754;6.866;2024-03-08T07:29:23;11.57;;;9.75;;
53925;SDS011;39836;52.754;6.866;2024-03-08T07:31:48;13.70;;;8.88;;
53925;SDS011;39836;52.754;6.866;2024-03-08T07:34:37;11.88;;;8.32;;
53925;SDS011;39836;52.754;6.866;2024-03-08T07:37:05;11.02;;;9.15;;
53925;SDS011;39836;52.754;6.866;2024-03-08T07:39:36;12.82;;;7.80;;
53925;SDS011;39836;52.754;6.866;2024-03-08T07:42:02;17.35;;;9.20;;
53925;SDS011;39836;52.754;6.866;2024-03-08T07:44:28;9.02;;;7.20;;
53925;SDS011;39836;52.754;6.866;2024-03-08T07:46:54;17.50;;;8.75;;
53925;SDS011;39836;52.754;6.866;2024-03-08T07:49:20;15.38;;;10.95;;
53925;SDS011;39836;52.754;6.866;2024-03-08T07:51:46;11.65;;;7.93;;
53925;SDS011;39836;52.754;6.866;2024-03-08T07:54:12;14.60;;;8.77;;
53925;SDS011;39836;52.754;6.866;2024-03-08T07:56:38;18.27;;;8.15;;
53925;SDS011;39836;52.754;6.866;2024-03-08T07:59:04;9.40;;;6.65;;
53925;SDS011;39836;52.754;6.866;2024-03-08T08:01:29;12.75;;;8.18;;
53925;SDS011;39836;52.754;6.866;2024-03-08T08:03:56;9.15;;;6.72;;
53925;SDS011;39836;52.754;6.866;2024-03-08T08:06:22;11.15;;;7.15;;
53925;SDS011;39836;52.754;6.866;2024-03-08T08:08:48;11.45;;;8.98;;
53925;SDS011;39836;52.754;6.866;2024-03-08T08:11:14;12.35;;;8.13;;
53925;SDS011;39836;52.754;6.866;2024-03-08T08:13:41;22.10;;;9.55;;
53925;SDS011;39836;52.754;6.866;2024-03-08T08:16:08;47.30;;;29.35;;
53925;SDS011;39836;52.754;6.866;2024-03-08T08:18:34;43.50;;;27.30;;
53925;SDS011;39836;52.754;6.866;2024-03-08T08:21:00;10.80;;;6.88;;
53925;SDS011;39836;52.754;6.866;2024-03-08T08:23:26;47.05;;;30.13;;
53925;SDS011;39836;52.754;6.866;2024-03-08T08:25:52;42.53;;;27.73;;
53925;SDS011;39836;52.754;6.866;2024-03-08T08:28:18;9.27;;;6.22;;
53925;SDS011;39836;52.754;6.866;2024-03-08T08:30:44;15.18;;;9.65;;
53925;SDS011;39836;52.754;6.866;2024-03-08T08:33:10;45.20;;;28.33;;
53925;SDS011;39836;52.754;6.866;2024-03-08T08:35:39;47.15;;;28.25;;
53925;SDS011;39836;52.754;6.866;2024-03-08T08:38:04;44.70;;;28.63;;
53925;SDS011;39836;52.754;6.866;2024-03-08T08:40:30;44.00;;;28.95;;
53925;SDS011;39836;52.754;6.866;2024-03-08T08:43:00;47.70;;;28.35;;
53925;SDS011;39836;52.754;6.866;2024-03-08T08:45:25;42.92;;;27.63;;
53925;SDS011;39836;52.754;6.866;2024-03-08T08:47:52;48.13;;;28.30;;
53925;SDS011;39836;52.754;6.866;2024-03-08T08:50:17;49.00;;;27.63;;
53925;SDS011;39836;52.754;6.866;2024-03-08T08:52:48;44.97;;;27.73;;
53925;SDS011;39836;52.754;6.866;2024-03-08T08:55:14;44.20;;;26.92;;
53925;SDS011;39836;52.754;6.866;2024-03-08T08:57:40;43.55;;;27.38;;
53925;SDS011;39836;52.754;6.866;2024-03-08T09:00:06;40.90;;;25.67;;
53925;SDS011;39836;52.754;6.866;2024-03-08T09:02:34;40.45;;;26.27;;
53925;SDS011;39836;52.754;6.866;2024-03-08T09:05:00;44.70;;;27.63;;
53925;SDS011;39836;52.754;6.866;2024-03-08T09:07:28;42.22;;;27.55;;
53925;SDS011;39836;52.754;6.866;2024-03-08T09:09:54;45.05;;;28.92;;
53925;SDS011;39836;52.754;6.866;2024-03-08T09:12:23;49.17;;;31.33;;
53925;SDS011;39836;52.754;6.866;2024-03-08T09:14:49;45.25;;;29.67;;
53925;SDS011;39836;52.754;6.866;2024-03-08T09:17:15;42.42;;;28.98;;
53925;SDS011;39836;52.754;6.866;2024-03-08T09:19:48;41.10;;;29.20;;
53925;SDS011;39836;52.754;6.866;2024-03-08T09:22:14;42.85;;;29.15;;
53925;SDS011;39836;52.754;6.866;2024-03-08T09:24:41;44.60;;;29.55;;
53925;SDS011;39836;52.754;6.866;2024-03-08T09:27:08;44.28;;;29.20;;
53925;SDS011;39836;52.754;6.866;2024-03-08T09:29:35;43.47;;;29.45;;
53925;SDS011;39836;52.754;6.866;2024-03-08T09:32:01;44.83;;;29.83;;
53925;SDS011;39836;52.754;6.866;2024-03-08T09:34:26;43.83;;;29.25;;
53925;SDS011;39836;52.754;6.866;2024-03-08T09:36:52;45.60;;;28.65;;
53925;SDS011;39836;52.754;6.866;2024-03-08T09:39:18;47.45;;;29.20;;
53925;SDS011;39836;52.754;6.866;2024-03-08T09:41:46;42.92;;;28.88;;
53925;SDS011;39836;52.754;6.866;2024-03-08T09:44:18;42.05;;;29.02;;
53925;SDS011;39836;52.754;6.866;2024-03-08T09:46:45;40.05;;;27.52;;
53925;SDS011;39836;52.754;6.866;2024-03-08T09:49:16;45.45;;;28.67;;
53925;SDS011;39836;52.754;6.866;2024-03-08T09:51:42;44.80;;;29.48;;
53925;SDS011;39836;52.754;6.866;2024-03-08T09:54:08;45.83;;;28.15;;
53925;SDS011;39836;52.754;6.866;2024-03-08T09:56:34;41.10;;;28.70;;
53925;SDS011;39836;52.754;6.866;2024-03-08T09:59:01;48.20;;;28.13;;
53925;SDS011;39836;52.754;6.866;2024-03-08T10:01:50;43.88;;;29.10;;
53925;SDS011;39836;52.754;6.866;2024-03-08T10:04:17;45.67;;;28.90;;
53925;SDS011;39836;52.754;6.866;2024-03-08T10:06:45;43.45;;;27.23;;
53925;SDS011;39836;52.754;6.866;2024-03-08T10:09:12;45.45;;;27.73;;
53925;SDS011;39836;52.754;6.866;2024-03-08T10:11:39;41.00;;;26.88;;
53925;SDS011;39836;52.754;6.866;2024-03-08T10:14:05;44.38;;;28.20;;
53925;SDS011;39836;52.754;6.866;2024-03-08T10:16:34;40.83;;;28.63;;
53925;SDS011;39836;52.754;6.866;2024-03-08T10:19:00;46.55;;;31.20;;
53925;SDS011;39836;52.754;6.866;2024-03-08T10:21:26;42.13;;;28.88;;
53925;SDS011;39836;52.754;6.866;2024-03-08T10:23:52;47.63;;;29.33;;
53925;SDS011;39836;52.754;6.866;2024-03-08T10:26:18;41.60;;;27.42;;
53925;SDS011;39836;52.754;6.866;2024-03-08T10:28:47;42.63;;;28.38;;
53925;SDS011;39836;52.754;6.866;2024-03-08T10:31:16;42.67;;;26.80;;
53925;SDS011;39836;52.754;6.866;2024-03-08T10:33:43;41.45;;;26.77;;
53925;SDS011;39836;52.754;6.866;2024-03-08T10:36:13;41.60;;;28.30;;
53925;SDS011;39836;52.754;6.866;2024-03-08T10:38:40;37.95;;;26.35;;
53925;SDS011;39836;52.754;6.866;2024-03-08T10:41:11;43.88;;;27.73;;
53925;SDS011;39836;52.754;6.866;2024-03-08T10:43:55;44.35;;;26.20;;
53925;SDS011;39836;52.754;6.866;2024-03-08T18:46:08;40.70;;;29.83;;
53925;SDS011;39836;52.754;6.866;2024-03-08T18:48:50;37.50;;;30.48;;
53925;SDS011;39836;52.754;6.866;2024-03-08T18:51:16;41.85;;;29.63;;
53925;SDS011;39836;52.754;6.866;2024-03-08T18:53:42;40.08;;;29.60;;
53925;SDS011;39836;52.754;6.866;2024-03-08T18:56:09;41.08;;;30.40;;
53925;SDS011;39836;52.754;6.866;2024-03-08T18:58:35;42.53;;;30.45;;
53925;SDS011;39836;52.754;6.866;2024-03-08T19:01:01;41.80;;;31.85;;
53925;SDS011;39836;52.754;6.866;2024-03-08T19:03:30;40.80;;;32.15;;
53925;SDS011;39836;52.754;6.866;2024-03-08T19:05:56;43.05;;;31.48;;
53925;SDS011;39836;52.754;6.866;2024-03-08T19:08:22;40.35;;;32.33;;
53925;SDS011;39836;52.754;6.866;2024-03-08T19:10:48;41.10;;;31.60;;
53925;SDS011;39836;52.754;6.866;2024-03-08T19:13:16;38.70;;;31.20;;
53925;SDS011;39836;52.754;6.866;2024-03-08T19:15:42;42.45;;;31.83;;
53925;SDS011;39836;52.754;6.866;2024-03-08T19:18:08;36.17;;;29.80;;
53925;SDS011;39836;52.754;6.866;2024-03-08T19:20:35;42.58;;;30.48;;
53925;SDS011;39836;52.754;6.866;2024-03-08T19:23:01;37.92;;;29.50;;
53925;SDS011;39836;52.754;6.866;2024-03-08T19:25:29;36.80;;;29.52;;
53925;SDS011;39836;52.754;6.866;2024-03-08T19:28:07;39.83;;;30.48;;
53925;SDS011;39836;52.754;6.866;2024-03-08T19:30:35;41.65;;;30.92;;
53925;SDS011;39836;52.754;6.866;2024-03-08T19:33:02;38.83;;;30.02;;
53925;SDS011;39836;52.754;6.866;2024-03-08T19:35:32;39.17;;;30.73;;
53925;SDS011;39836;52.754;6.866;2024-03-08T19:38:00;38.05;;;29.88;;
53925;SDS011;39836;52.754;6.866;2024-03-08T19:40:30;39.80;;;30.00;;
53925;SDS011;39836;52.754;6.866;2024-03-08T19:43:06;41.83;;;31.40;;
53925;SDS011;39836;52.754;6.866;2024-03-08T19:45:32;38.90;;;31.17;;
53925;SDS011;39836;52.754;6.866;2024-03-08T19:47:59;43.15;;;31.73;;
53925;SDS011;39836;52.754;6.866;2024-03-08T19:50:29;36.20;;;29.45;;
53925;SDS011;39836;52.754;6.866;2024-03-08T19:52:57;39.75;;;30.70;;
53925;SDS011;39836;52.754;6.866;2024-03-08T19:55:29;39.22;;;30.92;;
53925;SDS011;39836;52.754;6.866;2024-03-08T19:57:57;39.97;;;30.67;;
53925;SDS011;39836;52.754;6.866;2024-03-08T20:00:24;41.22;;;31.33;;
53925;SDS011;39836;52.754;6.866;2024-03-08T20:02:53;39.47;;;30.05;;
53925;SDS011;39836;52.754;6.866;2024-03-08T20:05:24;40.53;;;30.95;;
53925;SDS011;39836;52.754;6.866;2024-03-08T20:07:51;38.85;;;29.90;;
53925;SDS011;39836;52.754;6.866;2024-03-08T20:10:19;43.78;;;32.08;;
53925;SDS011;39836;52.754;6.866;2024-03-08T20:12:47;39.40;;;30.77;;
53925;SDS011;39836;52.754;6.866;2024-03-08T20:15:13;41.40;;;31.02;;
53925;SDS011;39836;52.754;6.866;2024-03-08T20:17:40;43.05;;;30.52;;
53925;SDS011;39836;52.754;6.866;2024-03-08T20:20:12;40.03;;;30.85;;
53925;SDS011;39836;52.754;6.866;2024-03-08T20:22:44;41.33;;;31.63;;
53925;SDS011;39836;52.754;6.866;2024-03-08T20:25:13;39.85;;;31.88;;
53925;SDS011;39836;52.754;6.866;2024-03-08T20:27:49;41.75;;;31.42;;
53925;SDS011;39836;52.754;6.866;2024-03-08T20:30:22;38.55;;;30.60;;
53925;SDS011;39836;52.754;6.866;2024-03-08T20:35:23;44.88;;;31.38;;
53925;SDS011;39836;52.754;6.866;2024-03-08T20:37:50;58.50;;;33.50;;
53925;SDS011;39836;52.754;6.866;2024-03-08T20:40:17;43.35;;;31.90;;
53925;SDS011;39836;52.754;6.866;2024-03-08T20:42:58;40.47;;;31.70;;
53925;SDS011;39836;52.754;6.866;2024-03-08T20:45:24;29.33;;;17.67;;
53925;SDS011;39836;52.754;6.866;2024-03-08T20:47:53;45.35;;;34.28;;
53925;SDS011;39836;52.754;6.866;2024-03-08T20:50:19;43.95;;;33.13;;
53925;SDS011;39836;52.754;6.866;2024-03-08T20:52:49;43.42;;;31.80;;
53925;SDS011;39836;52.754;6.866;2024-03-08T20:55:15;46.13;;;33.20;;
53925;SDS011;39836;52.754;6.866;2024-03-08T20:57:52;45.33;;;33.17;;
53925;SDS011;39836;52.754;6.866;2024-03-08T21:00:19;46.00;;;34.28;;
53925;SDS011;39836;52.754;6.866;2024-03-08T21:03:13;49.53;;;35.47;;
53925;SDS011;39836;52.754;6.866;2024-03-08T21:05:40;46.10;;;35.03;;
53925;SDS011;39836;52.754;6.866;2024-03-08T21:08:07;44.83;;;34.88;;
53925;SDS011;39836;52.754;6.866;2024-03-08T21:10:36;47.28;;;35.30;;
53925;SDS011;39836;52.754;6.866;2024-03-08T21:13:03;48.42;;;35.03;;
53925;SDS011;39836;52.754;6.866;2024-03-08T21:15:35;48.20;;;35.03;;
53925;SDS011;39836;52.754;6.866;2024-03-08T21:18:01;47.33;;;35.72;;
53925;SDS011;39836;52.754;6.866;2024-03-08T21:20:28;46.13;;;35.63;;
53925;SDS011;39836;52.754;6.866;2024-03-08T21:22:55;48.83;;;35.00;;
53925;SDS011;39836;52.754;6.866;2024-03-08T21:25:21;47.72;;;35.20;;
53925;SDS011;39836;52.754;6.866;2024-03-08T21:27:52;46.65;;;35.53;;
53925;SDS011;39836;52.754;6.866;2024-03-08T21:30:21;44.92;;;33.33;;
53925;SDS011;39836;52.754;6.866;2024-03-08T21:32:47;44.53;;;34.17;;
53925;SDS011;39836;52.754;6.866;2024-03-08T21:35:13;52.33;;;35.60;;
53925;SDS011;39836;52.754;6.866;2024-03-08T21:37:39;48.30;;;35.30;;
53925;SDS011;39836;52.754;6.866;2024-03-08T21:40:05;48.55;;;35.80;;
53925;SDS011;39836;52.754;6.866;2024-03-08T21:42:35;49.42;;;35.10;;
53925;SDS011;39836;52.754;6.866;2024-03-08T21:45:03;44.92;;;34.53;;
53925;SDS011;39836;52.754;6.866;2024-03-08T21:47:30;49.33;;;36.40;;
53925;SDS011;39836;52.754;6.866;2024-03-08T21:49:56;45.63;;;35.25;;
53925;SDS011;39836;52.754;6.866;2024-03-08T21:52:22;51.00;;;35.67;;
53925;SDS011;39836;52.754;6.866;2024-03-08T21:54:49;48.13;;;36.13;;
53925;SDS011;39836;52.754;6.866;2024-03-08T21:57:15;48.33;;;36.22;;
53925;SDS011;39836;52.754;6.866;2024-03-08T21:59:45;46.70;;;35.95;;
53925;SDS011;39836;52.754;6.866;2024-03-08T22:02:11;45.72;;;34.88;;
53925;SDS011;39836;52.754;6.866;2024-03-08T22:04:37;50.10;;;37.47;;
53925;SDS011;39836;52.754;6.866;2024-03-08T22:07:03;45.47;;;35.70;;
53925;SDS011;39836;52.754;6.866;2024-03-08T22:09:29;47.42;;;35.63;;
53925;SDS011;39836;52.754;6.866;2024-03-08T22:11:58;47.13;;;35.13;;
53925;SDS011;39836;52.754;6.866;2024-03-08T22:14:24;46.28;;;35.53;;
53925;SDS011;39836;52.754;6.866;2024-03-08T22:16:50;45.00;;;34.28;;
53925;SDS011;39836;52.754;6.866;2024-03-08T22:19:16;47.35;;;35.78;;
53925;SDS011;39836;52.754;6.866;2024-03-08T22:21:45;45.33;;;35.53;;
53925;SDS011;39836;52.754;6.866;2024-03-08T22:24:11;47.05;;;34.78;;
53925;SDS011;39836;52.754;6.866;2024-03-08T22:26:37;45.88;;;34.45;;
53925;SDS011;39836;52.754;6.866;2024-03-08T22:29:04;48.30;;;34.90;;